sensor_id;sensor_type;location;lat;lon;timestamp;P1;durP1;ratioP1;P2;durP2;ratioP2
12181;SDS011;6154;51.550;12.138;2023-04-29T00:00:17;8.75;;;5.25;;
12181;SDS011;6154;51.550;12.138;2023-04-29T00:02:46;7.68;;;5.53;;
12181;SDS011;6154;51.550;12.138;2023-04-29T00:05:15;9.73;;;5.37;;
12181;SDS011;6154;51.550;12.138;2023-04-29T00:07:45;9.10;;;6.03;;
12181;SDS011;6154;51.550;12.138;2023-04-29T00:10:14;9.07;;;5.97;;
12181;SDS011;6154;51.550;12.138;2023-04-29T00:12:42;9.02;;;5.62;;
12181;SDS011;6154;51.550;12.138;2023-04-29T00:15:10;7.25;;;5.37;;
12181;SDS011;6154;51.550;12.138;2023-04-29T00:17:48;7.68;;;5.20;;
12181;SDS011;6154;51.550;12.138;2023-04-29T00:20:16;8.23;;;6.07;;
12181;SDS011;6154;51.550;12.138;2023-04-29T00:22:46;8.15;;;5.72;;
12181;SDS011;6154;51.550;12.138;2023-04-29T00:25:15;7.82;;;5.43;;
12181;SDS011;6154;51.550;12.138;2023-04-29T00:27:43;6.80;;;5.70;;
12181;SDS011;6154;51.550;12.138;2023-04-29T00:30:11;6.85;;;5.32;;
12181;SDS011;6154;51.550;12.138;2023-04-29T00:32:40;8.05;;;5.00;;
12181;SDS011;6154;51.550;12.138;2023-04-29T00:35:10;7.22;;;5.25;;
12181;SDS011;6154;51.550;12.138;2023-04-29T00:37:38;7.47;;;5.30;;
12181;SDS011;6154;51.550;12.138;2023-04-29T00:40:08;6.87;;;5.22;;
12181;SDS011;6154;51.550;12.138;2023-04-29T00:42:41;6.80;;;5.53;;
12181;SDS011;6154;51.550;12.138;2023-04-29T00:45:09;8.38;;;5.55;;
12181;SDS011;6154;51.550;12.138;2023-04-29T00:47:38;8.45;;;5.85;;
12181;SDS011;6154;51.550;12.138;2023-04-29T00:50:07;7.87;;;5.80;;
12181;SDS011;6154;51.550;12.138;2023-04-29T00:52:36;6.85;;;5.47;;
12181;SDS011;6154;51.550;12.138;2023-04-29T00:55:05;10.02;;;5.12;;
12181;SDS011;6154;51.550;12.138;2023-04-29T00:57:36;8.38;;;5.90;;
12181;SDS011;6154;51.550;12.138;2023-04-29T01:00:05;9.57;;;5.70;;
12181;SDS011;6154;51.550;12.138;2023-04-29T01:02:36;7.55;;;5.35;;
12181;SDS011;6154;51.550;12.138;2023-04-29T01:05:05;7.90;;;5.90;;
12181;SDS011;6154;51.550;12.138;2023-04-29T01:07:35;9.00;;;5.87;;
12181;SDS011;6154;51.550;12.138;2023-04-29T01:10:13;9.27;;;6.07;;
12181;SDS011;6154;51.550;12.138;2023-04-29T01:12:49;9.25;;;5.55;;
12181;SDS011;6154;51.550;12.138;2023-04-29T01:15:27;6.37;;;5.03;;
12181;SDS011;6154;51.550;12.138;2023-04-29T01:18:02;8.10;;;5.25;;
12181;SDS011;6154;51.550;12.138;2023-04-29T01:20:32;9.52;;;6.37;;
12181;SDS011;6154;51.550;12.138;2023-04-29T01:23:03;9.63;;;6.40;;
12181;SDS011;6154;51.550;12.138;2023-04-29T01:25:33;9.73;;;5.85;;
12181;SDS011;6154;51.550;12.138;2023-04-29T01:28:04;9.13;;;5.78;;
12181;SDS011;6154;51.550;12.138;2023-04-29T01:30:44;8.80;;;6.37;;
12181;SDS011;6154;51.550;12.138;2023-04-29T01:33:19;7.57;;;5.43;;
12181;SDS011;6154;51.550;12.138;2023-04-29T01:35:57;10.27;;;6.12;;
12181;SDS011;6154;51.550;12.138;2023-04-29T01:38:35;8.82;;;5.85;;
12181;SDS011;6154;51.550;12.138;2023-04-29T01:41:12;9.98;;;6.20;;
12181;SDS011;6154;51.550;12.138;2023-04-29T01:43:42;8.57;;;6.20;;
12181;SDS011;6154;51.550;12.138;2023-04-29T01:46:17;7.57;;;5.45;;
12181;SDS011;6154;51.550;12.138;2023-04-29T01:48:46;8.48;;;5.10;;
12181;SDS011;6154;51.550;12.138;2023-04-29T01:51:15;10.10;;;5.82;;
12181;SDS011;6154;51.550;12.138;2023-04-29T01:53:43;10.55;;;6.65;;
12181;SDS011;6154;51.550;12.138;2023-04-29T01:56:13;10.07;;;6.12;;
12181;SDS011;6154;51.550;12.138;2023-04-29T01:58:41;8.52;;;6.55;;
12181;SDS011;6154;51.550;12.138;2023-04-29T02:01:10;8.13;;;5.43;;
12181;SDS011;6154;51.550;12.138;2023-04-29T02:03:39;8.07;;;5.72;;
12181;SDS011;6154;51.550;12.138;2023-04-29T02:06:07;10.93;;;6.45;;
12181;SDS011;6154;51.550;12.138;2023-04-29T02:08:36;7.12;;;5.72;;
12181;SDS011;6154;51.550;12.138;2023-04-29T02:11:05;9.32;;;6.45;;
12181;SDS011;6154;51.550;12.138;2023-04-29T02:13:35;10.48;;;6.07;;
12181;SDS011;6154;51.550;12.138;2023-04-29T02:16:06;10.20;;;5.97;;
12181;SDS011;6154;51.550;12.138;2023-04-29T02:18:36;11.10;;;6.10;;
12181;SDS011;6154;51.550;12.138;2023-04-29T02:21:04;12.93;;;5.82;;
12181;SDS011;6154;51.550;12.138;2023-04-29T02:23:33;11.82;;;6.47;;
12181;SDS011;6154;51.550;12.138;2023-04-29T02:26:02;8.05;;;6.20;;
12181;SDS011;6154;51.550;12.138;2023-04-29T02:28:31;8.57;;;6.30;;
12181;SDS011;6154;51.550;12.138;2023-04-29T02:31:01;11.55;;;6.57;;
12181;SDS011;6154;51.550;12.138;2023-04-29T02:33:30;10.00;;;6.72;;
12181;SDS011;6154;51.550;12.138;2023-04-29T02:35:59;13.02;;;6.37;;
12181;SDS011;6154;51.550;12.138;2023-04-29T02:38:27;8.07;;;6.18;;
12181;SDS011;6154;51.550;12.138;2023-04-29T02:40:55;9.25;;;6.57;;
12181;SDS011;6154;51.550;12.138;2023-04-29T02:43:24;7.93;;;5.75;;
12181;SDS011;6154;51.550;12.138;2023-04-29T02:45:52;9.07;;;5.95;;
12181;SDS011;6154;51.550;12.138;2023-04-29T02:48:21;9.25;;;6.70;;
12181;SDS011;6154;51.550;12.138;2023-04-29T02:51:08;11.27;;;7.18;;
12181;SDS011;6154;51.550;12.138;2023-04-29T02:53:55;10.82;;;6.82;;
12181;SDS011;6154;51.550;12.138;2023-04-29T02:56:24;10.68;;;6.62;;
12181;SDS011;6154;51.550;12.138;2023-04-29T02:58:52;8.82;;;6.55;;
12181;SDS011;6154;51.550;12.138;2023-04-29T03:01:20;8.57;;;6.82;;
12181;SDS011;6154;51.550;12.138;2023-04-29T03:03:51;9.15;;;6.87;;
12181;SDS011;6154;51.550;12.138;2023-04-29T03:06:20;12.00;;;7.37;;
12181;SDS011;6154;51.550;12.138;2023-04-29T03:08:49;9.70;;;7.15;;
12181;SDS011;6154;51.550;12.138;2023-04-29T03:11:18;10.75;;;7.22;;
12181;SDS011;6154;51.550;12.138;2023-04-29T03:13:46;10.52;;;6.62;;
12181;SDS011;6154;51.550;12.138;2023-04-29T03:16:15;10.00;;;7.25;;
12181;SDS011;6154;51.550;12.138;2023-04-29T03:18:44;9.20;;;6.78;;
12181;SDS011;6154;51.550;12.138;2023-04-29T03:21:13;13.68;;;7.87;;
12181;SDS011;6154;51.550;12.138;2023-04-29T03:23:42;10.05;;;6.35;;
12181;SDS011;6154;51.550;12.138;2023-04-29T03:26:12;12.55;;;8.10;;
12181;SDS011;6154;51.550;12.138;2023-04-29T03:28:40;11.52;;;7.65;;
12181;SDS011;6154;51.550;12.138;2023-04-29T03:31:08;11.90;;;8.10;;
12181;SDS011;6154;51.550;12.138;2023-04-29T03:33:38;9.13;;;6.65;;
12181;SDS011;6154;51.550;12.138;2023-04-29T03:36:06;14.32;;;8.10;;
12181;SDS011;6154;51.550;12.138;2023-04-29T03:38:36;9.57;;;7.40;;
12181;SDS011;6154;51.550;12.138;2023-04-29T03:41:05;12.63;;;8.20;;
12181;SDS011;6154;51.550;12.138;2023-04-29T03:43:33;10.73;;;7.62;;
12181;SDS011;6154;51.550;12.138;2023-04-29T03:46:02;11.52;;;7.40;;
12181;SDS011;6154;51.550;12.138;2023-04-29T03:48:30;11.68;;;7.35;;
12181;SDS011;6154;51.550;12.138;2023-04-29T03:50:59;12.13;;;7.85;;
12181;SDS011;6154;51.550;12.138;2023-04-29T03:53:27;12.82;;;7.87;;
12181;SDS011;6154;51.550;12.138;2023-04-29T03:55:57;12.40;;;7.65;;
12181;SDS011;6154;51.550;12.138;2023-04-29T03:58:25;11.27;;;7.28;;
12181;SDS011;6154;51.550;12.138;2023-04-29T04:00:53;11.88;;;7.82;;
12181;SDS011;6154;51.550;12.138;2023-04-29T04:03:23;11.55;;;7.87;;
12181;SDS011;6154;51.550;12.138;2023-04-29T04:05:53;12.23;;;7.70;;
12181;SDS011;6154;51.550;12.138;2023-04-29T04:08:22;12.88;;;7.75;;
12181;SDS011;6154;51.550;12.138;2023-04-29T04:10:50;11.38;;;7.87;;
12181;SDS011;6154;51.550;12.138;2023-04-29T04:13:20;12.32;;;8.30;;
12181;SDS011;6154;51.550;12.138;2023-04-29T04:15:49;15.27;;;8.50;;
12181;SDS011;6154;51.550;12.138;2023-04-29T04:18:18;12.88;;;7.95;;
12181;SDS011;6154;51.550;12.138;2023-04-29T04:20:46;13.38;;;7.82;;
12181;SDS011;6154;51.550;12.138;2023-04-29T04:23:14;9.65;;;7.10;;
12181;SDS011;6154;51.550;12.138;2023-04-29T04:25:46;10.23;;;7.00;;
12181;SDS011;6154;51.550;12.138;2023-04-29T04:28:15;12.93;;;7.72;;
12181;SDS011;6154;51.550;12.138;2023-04-29T04:30:46;15.90;;;7.95;;
12181;SDS011;6154;51.550;12.138;2023-04-29T04:33:14;12.43;;;7.78;;
12181;SDS011;6154;51.550;12.138;2023-04-29T04:35:44;13.13;;;8.32;;
12181;SDS011;6154;51.550;12.138;2023-04-29T04:38:12;12.43;;;8.15;;
12181;SDS011;6154;51.550;12.138;2023-04-29T04:40:40;13.98;;;8.77;;
12181;SDS011;6154;51.550;12.138;2023-04-29T04:43:09;11.45;;;8.73;;
12181;SDS011;6154;51.550;12.138;2023-04-29T04:45:38;10.65;;;7.87;;
12181;SDS011;6154;51.550;12.138;2023-04-29T04:48:08;12.02;;;7.72;;
12181;SDS011;6154;51.550;12.138;2023-04-29T04:50:37;14.32;;;8.20;;
12181;SDS011;6154;51.550;12.138;2023-04-29T04:53:05;12.60;;;8.70;;
12181;SDS011;6154;51.550;12.138;2023-04-29T04:55:36;14.85;;;8.60;;
12181;SDS011;6154;51.550;12.138;2023-04-29T04:58:07;13.60;;;7.72;;
12181;SDS011;6154;51.550;12.138;2023-04-29T05:00:35;10.38;;;7.37;;
12181;SDS011;6154;51.550;12.138;2023-04-29T05:03:03;11.52;;;8.35;;
12181;SDS011;6154;51.550;12.138;2023-04-29T05:05:33;11.35;;;7.25;;
12181;SDS011;6154;51.550;12.138;2023-04-29T05:08:02;12.82;;;7.82;;
12181;SDS011;6154;51.550;12.138;2023-04-29T05:10:30;11.55;;;7.18;;
12181;SDS011;6154;51.550;12.138;2023-04-29T05:13:03;9.90;;;6.82;;
12181;SDS011;6154;51.550;12.138;2023-04-29T05:15:32;10.02;;;6.43;;
12181;SDS011;6154;51.550;12.138;2023-04-29T05:18:02;13.13;;;7.70;;
12181;SDS011;6154;51.550;12.138;2023-04-29T05:20:31;9.98;;;7.28;;
12181;SDS011;6154;51.550;12.138;2023-04-29T05:23:00;11.80;;;7.12;;
12181;SDS011;6154;51.550;12.138;2023-04-29T05:25:29;11.18;;;6.43;;
12181;SDS011;6154;51.550;12.138;2023-04-29T05:27:58;11.93;;;6.93;;
12181;SDS011;6154;51.550;12.138;2023-04-29T05:30:28;9.32;;;6.47;;
12181;SDS011;6154;51.550;12.138;2023-04-29T05:32:59;8.75;;;6.22;;
12181;SDS011;6154;51.550;12.138;2023-04-29T05:35:27;9.57;;;5.65;;
12181;SDS011;6154;51.550;12.138;2023-04-29T05:37:57;10.60;;;6.18;;
12181;SDS011;6154;51.550;12.138;2023-04-29T05:40:27;9.07;;;5.80;;
12181;SDS011;6154;51.550;12.138;2023-04-29T05:42:55;8.60;;;5.82;;
12181;SDS011;6154;51.550;12.138;2023-04-29T05:45:24;7.85;;;5.28;;
12181;SDS011;6154;51.550;12.138;2023-04-29T05:47:54;7.85;;;5.50;;
12181;SDS011;6154;51.550;12.138;2023-04-29T05:50:22;7.07;;;5.30;;
12181;SDS011;6154;51.550;12.138;2023-04-29T05:52:51;5.35;;;4.30;;
12181;SDS011;6154;51.550;12.138;2023-04-29T05:55:20;6.15;;;4.57;;
12181;SDS011;6154;51.550;12.138;2023-04-29T05:57:50;7.43;;;4.87;;
12181;SDS011;6154;51.550;12.138;2023-04-29T06:00:19;7.60;;;4.55;;
12181;SDS011;6154;51.550;12.138;2023-04-29T06:02:49;6.82;;;4.30;;
12181;SDS011;6154;51.550;12.138;2023-04-29T06:05:25;7.62;;;4.80;;
12181;SDS011;6154;51.550;12.138;2023-04-29T06:07:55;7.03;;;4.45;;
12181;SDS011;6154;51.550;12.138;2023-04-29T06:10:26;6.03;;;4.47;;
12181;SDS011;6154;51.550;12.138;2023-04-29T06:12:57;6.78;;;4.45;;
12181;SDS011;6154;51.550;12.138;2023-04-29T06:15:25;5.95;;;3.90;;
12181;SDS011;6154;51.550;12.138;2023-04-29T06:17:54;7.00;;;4.22;;
12181;SDS011;6154;51.550;12.138;2023-04-29T06:20:23;7.45;;;4.60;;
12181;SDS011;6154;51.550;12.138;2023-04-29T06:22:52;6.43;;;3.87;;
12181;SDS011;6154;51.550;12.138;2023-04-29T06:25:20;6.20;;;4.53;;
12181;SDS011;6154;51.550;12.138;2023-04-29T06:27:48;6.28;;;4.35;;
12181;SDS011;6154;51.550;12.138;2023-04-29T06:30:18;7.78;;;4.60;;
12181;SDS011;6154;51.550;12.138;2023-04-29T06:32:46;9.73;;;4.87;;
12181;SDS011;6154;51.550;12.138;2023-04-29T06:35:15;7.43;;;4.10;;
12181;SDS011;6154;51.550;12.138;2023-04-29T06:37:44;9.18;;;4.37;;
12181;SDS011;6154;51.550;12.138;2023-04-29T06:40:14;7.18;;;4.28;;
12181;SDS011;6154;51.550;12.138;2023-04-29T06:42:44;6.80;;;4.62;;
12181;SDS011;6154;51.550;12.138;2023-04-29T06:45:14;8.38;;;4.65;;
12181;SDS011;6154;51.550;12.138;2023-04-29T06:47:45;11.85;;;5.12;;
12181;SDS011;6154;51.550;12.138;2023-04-29T06:50:16;8.55;;;5.40;;
12181;SDS011;6154;51.550;12.138;2023-04-29T06:52:45;8.82;;;4.85;;
12181;SDS011;6154;51.550;12.138;2023-04-29T06:55:13;7.32;;;5.32;;
12181;SDS011;6154;51.550;12.138;2023-04-29T06:57:42;7.82;;;5.07;;
12181;SDS011;6154;51.550;12.138;2023-04-29T07:00:13;8.45;;;5.68;;
12181;SDS011;6154;51.550;12.138;2023-04-29T07:02:41;7.28;;;5.20;;
12181;SDS011;6154;51.550;12.138;2023-04-29T07:05:11;8.70;;;5.70;;
12181;SDS011;6154;51.550;12.138;2023-04-29T07:07:41;10.57;;;5.90;;
12181;SDS011;6154;51.550;12.138;2023-04-29T07:10:10;9.80;;;6.60;;
12181;SDS011;6154;51.550;12.138;2023-04-29T07:12:38;9.27;;;5.75;;
12181;SDS011;6154;51.550;12.138;2023-04-29T07:15:06;9.20;;;6.30;;
12181;SDS011;6154;51.550;12.138;2023-04-29T07:17:35;9.43;;;6.12;;
12181;SDS011;6154;51.550;12.138;2023-04-29T07:20:04;11.18;;;6.62;;
12181;SDS011;6154;51.550;12.138;2023-04-29T07:22:34;10.18;;;7.05;;
12181;SDS011;6154;51.550;12.138;2023-04-29T07:25:03;11.98;;;6.97;;
12181;SDS011;6154;51.550;12.138;2023-04-29T07:27:32;13.13;;;7.47;;
12181;SDS011;6154;51.550;12.138;2023-04-29T07:30:01;11.20;;;7.22;;
12181;SDS011;6154;51.550;12.138;2023-04-29T07:32:29;13.27;;;7.00;;
12181;SDS011;6154;51.550;12.138;2023-04-29T07:35:01;11.00;;;6.62;;
12181;SDS011;6154;51.550;12.138;2023-04-29T07:37:29;12.50;;;7.43;;
12181;SDS011;6154;51.550;12.138;2023-04-29T07:39:59;12.20;;;7.53;;
12181;SDS011;6154;51.550;12.138;2023-04-29T07:42:27;10.55;;;6.65;;
12181;SDS011;6154;51.550;12.138;2023-04-29T07:44:55;9.38;;;6.43;;
12181;SDS011;6154;51.550;12.138;2023-04-29T07:47:24;7.95;;;5.30;;
12181;SDS011;6154;51.550;12.138;2023-04-29T07:49:52;8.05;;;5.50;;
12181;SDS011;6154;51.550;12.138;2023-04-29T07:52:21;9.25;;;5.68;;
12181;SDS011;6154;51.550;12.138;2023-04-29T07:54:49;8.98;;;5.65;;
12181;SDS011;6154;51.550;12.138;2023-04-29T07:57:19;7.35;;;5.37;;
12181;SDS011;6154;51.550;12.138;2023-04-29T07:59:49;7.37;;;5.00;;
12181;SDS011;6154;51.550;12.138;2023-04-29T08:02:19;10.63;;;5.75;;
12181;SDS011;6154;51.550;12.138;2023-04-29T08:04:48;11.35;;;6.12;;
12181;SDS011;6154;51.550;12.138;2023-04-29T08:07:18;7.70;;;5.25;;
12181;SDS011;6154;51.550;12.138;2023-04-29T08:09:46;6.43;;;4.93;;
12181;SDS011;6154;51.550;12.138;2023-04-29T08:12:14;6.65;;;4.47;;
12181;SDS011;6154;51.550;12.138;2023-04-29T08:14:44;5.82;;;4.18;;
12181;SDS011;6154;51.550;12.138;2023-04-29T08:17:12;5.62;;;4.05;;
12181;SDS011;6154;51.550;12.138;2023-04-29T08:19:40;4.62;;;3.85;;
12181;SDS011;6154;51.550;12.138;2023-04-29T08:22:08;6.20;;;4.12;;
12181;SDS011;6154;51.550;12.138;2023-04-29T08:24:37;5.43;;;3.97;;
12181;SDS011;6154;51.550;12.138;2023-04-29T08:27:07;5.72;;;3.87;;
12181;SDS011;6154;51.550;12.138;2023-04-29T08:29:35;5.97;;;3.87;;
12181;SDS011;6154;51.550;12.138;2023-04-29T08:32:05;5.35;;;4.15;;
12181;SDS011;6154;51.550;12.138;2023-04-29T08:34:34;6.80;;;4.40;;
12181;SDS011;6154;51.550;12.138;2023-04-29T08:37:03;5.37;;;3.90;;
12181;SDS011;6154;51.550;12.138;2023-04-29T08:39:31;6.15;;;4.45;;
12181;SDS011;6154;51.550;12.138;2023-04-29T08:42:00;6.85;;;4.90;;
12181;SDS011;6154;51.550;12.138;2023-04-29T08:44:35;5.15;;;4.10;;
12181;SDS011;6154;51.550;12.138;2023-04-29T08:47:03;7.00;;;5.05;;
12181;SDS011;6154;51.550;12.138;2023-04-29T08:49:33;8.23;;;4.93;;
12181;SDS011;6154;51.550;12.138;2023-04-29T08:52:04;8.00;;;4.95;;
12181;SDS011;6154;51.550;12.138;2023-04-29T08:54:32;7.78;;;5.12;;
12181;SDS011;6154;51.550;12.138;2023-04-29T08:57:01;6.85;;;4.65;;
12181;SDS011;6154;51.550;12.138;2023-04-29T08:59:32;5.28;;;4.10;;
12181;SDS011;6154;51.550;12.138;2023-04-29T09:02:00;6.90;;;3.58;;
12181;SDS011;6154;51.550;12.138;2023-04-29T09:04:33;4.80;;;3.17;;
12181;SDS011;6154;51.550;12.138;2023-04-29T09:07:07;6.43;;;4.05;;
12181;SDS011;6154;51.550;12.138;2023-04-29T09:09:39;8.52;;;3.92;;
12181;SDS011;6154;51.550;12.138;2023-04-29T09:12:08;6.25;;;4.25;;
12181;SDS011;6154;51.550;12.138;2023-04-29T09:14:36;6.50;;;4.18;;
12181;SDS011;6154;51.550;12.138;2023-04-29T09:17:04;5.55;;;3.25;;
12181;SDS011;6154;51.550;12.138;2023-04-29T09:19:34;3.35;;;2.55;;
12181;SDS011;6154;51.550;12.138;2023-04-29T09:22:03;3.58;;;2.83;;
12181;SDS011;6154;51.550;12.138;2023-04-29T09:24:33;4.68;;;3.20;;
12181;SDS011;6154;51.550;12.138;2023-04-29T09:27:01;4.37;;;3.42;;
12181;SDS011;6154;51.550;12.138;2023-04-29T09:29:30;4.72;;;3.45;;
12181;SDS011;6154;51.550;12.138;2023-04-29T09:31:59;5.12;;;3.47;;
12181;SDS011;6154;51.550;12.138;2023-04-29T09:34:31;4.55;;;3.20;;
12181;SDS011;6154;51.550;12.138;2023-04-29T09:37:03;4.60;;;3.65;;
12181;SDS011;6154;51.550;12.138;2023-04-29T09:39:36;6.18;;;3.53;;
12181;SDS011;6154;51.550;12.138;2023-04-29T09:42:06;4.93;;;3.85;;
12181;SDS011;6154;51.550;12.138;2023-04-29T09:44:35;5.20;;;3.25;;
12181;SDS011;6154;51.550;12.138;2023-04-29T09:47:03;7.72;;;3.35;;
12181;SDS011;6154;51.550;12.138;2023-04-29T09:49:33;3.62;;;3.08;;
12181;SDS011;6154;51.550;12.138;2023-04-29T09:52:07;5.15;;;3.72;;
12181;SDS011;6154;51.550;12.138;2023-04-29T09:54:37;4.50;;;3.17;;
12181;SDS011;6154;51.550;12.138;2023-04-29T09:57:07;4.57;;;3.25;;
12181;SDS011;6154;51.550;12.138;2023-04-29T09:59:36;10.05;;;3.92;;
12181;SDS011;6154;51.550;12.138;2023-04-29T10:02:06;7.00;;;3.65;;
12181;SDS011;6154;51.550;12.138;2023-04-29T10:04:41;5.45;;;3.87;;
12181;SDS011;6154;51.550;12.138;2023-04-29T10:07:14;5.80;;;3.78;;
12181;SDS011;6154;51.550;12.138;2023-04-29T10:09:44;5.93;;;4.05;;
12181;SDS011;6154;51.550;12.138;2023-04-29T10:12:13;7.85;;;4.55;;
12181;SDS011;6154;51.550;12.138;2023-04-29T10:14:44;5.93;;;4.40;;
12181;SDS011;6154;51.550;12.138;2023-04-29T10:17:19;8.00;;;5.35;;
12181;SDS011;6154;51.550;12.138;2023-04-29T10:19:57;5.82;;;4.32;;
12181;SDS011;6154;51.550;12.138;2023-04-29T10:22:35;8.23;;;5.30;;
12181;SDS011;6154;51.550;12.138;2023-04-29T10:25:12;9.95;;;5.78;;
12181;SDS011;6154;51.550;12.138;2023-04-29T10:27:43;10.30;;;6.00;;
12181;SDS011;6154;51.550;12.138;2023-04-29T10:30:12;9.38;;;6.60;;
12181;SDS011;6154;51.550;12.138;2023-04-29T10:32:41;14.27;;;6.75;;
12181;SDS011;6154;51.550;12.138;2023-04-29T10:35:17;11.23;;;7.22;;
12181;SDS011;6154;51.550;12.138;2023-04-29T10:37:50;10.65;;;7.22;;
12181;SDS011;6154;51.550;12.138;2023-04-29T10:40:21;11.30;;;7.18;;
12181;SDS011;6154;51.550;12.138;2023-04-29T10:42:51;10.73;;;7.57;;
12181;SDS011;6154;51.550;12.138;2023-04-29T10:45:22;14.23;;;7.68;;
12181;SDS011;6154;51.550;12.138;2023-04-29T10:48:11;10.68;;;7.50;;
12181;SDS011;6154;51.550;12.138;2023-04-29T10:50:58;10.68;;;8.15;;
12181;SDS011;6154;51.550;12.138;2023-04-29T10:53:31;11.80;;;7.68;;
12181;SDS011;6154;51.550;12.138;2023-04-29T10:56:04;14.98;;;9.23;;
12181;SDS011;6154;51.550;12.138;2023-04-29T10:58:37;13.13;;;8.73;;
12181;SDS011;6154;51.550;12.138;2023-04-29T11:01:10;11.52;;;8.15;;
12181;SDS011;6154;51.550;12.138;2023-04-29T11:03:46;13.77;;;8.02;;
12181;SDS011;6154;51.550;12.138;2023-04-29T11:06:16;10.05;;;7.50;;
12181;SDS011;6154;51.550;12.138;2023-04-29T11:08:46;13.82;;;7.90;;
12181;SDS011;6154;51.550;12.138;2023-04-29T11:11:14;11.02;;;8.07;;
12181;SDS011;6154;51.550;12.138;2023-04-29T11:13:44;11.80;;;7.75;;
12181;SDS011;6154;51.550;12.138;2023-04-29T11:16:13;11.90;;;7.75;;
12181;SDS011;6154;51.550;12.138;2023-04-29T11:21:33;9.73;;;6.80;;
12181;SDS011;6154;51.550;12.138;2023-04-29T11:24:04;9.57;;;7.03;;
12181;SDS011;6154;51.550;12.138;2023-04-29T11:26:33;10.55;;;7.60;;
12181;SDS011;6154;51.550;12.138;2023-04-29T11:29:01;12.05;;;8.25;;
12181;SDS011;6154;51.550;12.138;2023-04-29T11:31:31;9.88;;;7.12;;
12181;SDS011;6154;51.550;12.138;2023-04-29T11:34:02;11.45;;;7.30;;
12181;SDS011;6154;51.550;12.138;2023-04-29T11:36:33;9.02;;;6.87;;
12181;SDS011;6154;51.550;12.138;2023-04-29T11:39:02;9.80;;;7.28;;
12181;SDS011;6154;51.550;12.138;2023-04-29T11:41:31;7.10;;;6.10;;
12181;SDS011;6154;51.550;12.138;2023-04-29T11:44:01;9.90;;;6.95;;
12181;SDS011;6154;51.550;12.138;2023-04-29T11:46:30;9.45;;;6.53;;
12181;SDS011;6154;51.550;12.138;2023-04-29T11:48:58;8.20;;;6.37;;
12181;SDS011;6154;51.550;12.138;2023-04-29T11:51:27;8.27;;;5.85;;
12181;SDS011;6154;51.550;12.138;2023-04-29T11:53:55;8.45;;;5.55;;
12181;SDS011;6154;51.550;12.138;2023-04-29T11:56:25;8.05;;;5.80;;
12181;SDS011;6154;51.550;12.138;2023-04-29T11:58:54;7.68;;;6.15;;
12181;SDS011;6154;51.550;12.138;2023-04-29T12:01:24;10.98;;;6.25;;
12181;SDS011;6154;51.550;12.138;2023-04-29T12:03:55;8.27;;;6.57;;
12181;SDS011;6154;51.550;12.138;2023-04-29T12:06:26;8.63;;;5.62;;
12181;SDS011;6154;51.550;12.138;2023-04-29T12:08:57;8.68;;;5.57;;
12181;SDS011;6154;51.550;12.138;2023-04-29T12:11:27;7.50;;;5.07;;
12181;SDS011;6154;51.550;12.138;2023-04-29T12:13:55;9.07;;;5.65;;
12181;SDS011;6154;51.550;12.138;2023-04-29T12:16:24;6.65;;;5.03;;
12181;SDS011;6154;51.550;12.138;2023-04-29T12:18:55;7.10;;;5.43;;
12181;SDS011;6154;51.550;12.138;2023-04-29T12:21:24;6.25;;;4.65;;
12181;SDS011;6154;51.550;12.138;2023-04-29T12:23:53;9.02;;;5.22;;
12181;SDS011;6154;51.550;12.138;2023-04-29T12:26:21;6.37;;;5.68;;
12181;SDS011;6154;51.550;12.138;2023-04-29T12:28:53;9.60;;;6.03;;
12181;SDS011;6154;51.550;12.138;2023-04-29T12:31:31;7.40;;;5.80;;
12181;SDS011;6154;51.550;12.138;2023-04-29T12:34:02;8.05;;;6.50;;
12181;SDS011;6154;51.550;12.138;2023-04-29T12:36:34;7.82;;;6.30;;
12181;SDS011;6154;51.550;12.138;2023-04-29T12:39:04;6.28;;;5.32;;
12181;SDS011;6154;51.550;12.138;2023-04-29T12:41:37;7.53;;;5.22;;
12181;SDS011;6154;51.550;12.138;2023-04-29T12:44:07;6.20;;;5.35;;
12181;SDS011;6154;51.550;12.138;2023-04-29T12:46:38;7.45;;;5.90;;
12181;SDS011;6154;51.550;12.138;2023-04-29T12:49:07;7.15;;;5.32;;
12181;SDS011;6154;51.550;12.138;2023-04-29T12:51:35;7.20;;;5.50;;
12181;SDS011;6154;51.550;12.138;2023-04-29T12:54:04;9.55;;;5.68;;
12181;SDS011;6154;51.550;12.138;2023-04-29T12:56:33;7.20;;;5.47;;
12181;SDS011;6154;51.550;12.138;2023-04-29T12:59:04;6.93;;;5.65;;
12181;SDS011;6154;51.550;12.138;2023-04-29T13:01:35;6.90;;;5.25;;
12181;SDS011;6154;51.550;12.138;2023-04-29T13:04:04;6.87;;;5.00;;
12181;SDS011;6154;51.550;12.138;2023-04-29T13:06:35;6.85;;;4.55;;
12181;SDS011;6154;51.550;12.138;2023-04-29T13:09:06;5.45;;;4.72;;
12181;SDS011;6154;51.550;12.138;2023-04-29T13:11:44;6.85;;;5.00;;
12181;SDS011;6154;51.550;12.138;2023-04-29T13:14:12;6.37;;;4.50;;
12181;SDS011;6154;51.550;12.138;2023-04-29T13:16:42;7.72;;;5.40;;
12181;SDS011;6154;51.550;12.138;2023-04-29T13:19:11;8.55;;;5.03;;
12181;SDS011;6154;51.550;12.138;2023-04-29T13:21:59;5.20;;;4.30;;
12181;SDS011;6154;51.550;12.138;2023-04-29T13:24:28;6.20;;;4.53;;
12181;SDS011;6154;51.550;12.138;2023-04-29T13:26:56;4.85;;;4.15;;
12181;SDS011;6154;51.550;12.138;2023-04-29T13:29:25;7.72;;;5.47;;
12181;SDS011;6154;51.550;12.138;2023-04-29T13:31:55;6.25;;;4.60;;
12181;SDS011;6154;51.550;12.138;2023-04-29T13:34:23;5.00;;;4.50;;
12181;SDS011;6154;51.550;12.138;2023-04-29T13:36:51;5.93;;;4.72;;
12181;SDS011;6154;51.550;12.138;2023-04-29T13:39:20;5.60;;;4.50;;
12181;SDS011;6154;51.550;12.138;2023-04-29T13:41:48;4.70;;;4.07;;
12181;SDS011;6154;51.550;12.138;2023-04-29T13:44:17;7.55;;;4.00;;
12181;SDS011;6154;51.550;12.138;2023-04-29T13:47:00;5.80;;;4.03;;
12181;SDS011;6154;51.550;12.138;2023-04-29T13:49:31;7.40;;;4.43;;
12181;SDS011;6154;51.550;12.138;2023-04-29T13:52:02;4.93;;;3.85;;
12181;SDS011;6154;51.550;12.138;2023-04-29T13:54:50;6.43;;;3.87;;
12181;SDS011;6154;51.550;12.138;2023-04-29T13:57:22;6.35;;;3.50;;
12181;SDS011;6154;51.550;12.138;2023-04-29T14:00:13;5.93;;;4.20;;
12181;SDS011;6154;51.550;12.138;2023-04-29T14:03:03;4.40;;;3.50;;
12181;SDS011;6154;51.550;12.138;2023-04-29T14:05:33;4.65;;;3.72;;
12181;SDS011;6154;51.550;12.138;2023-04-29T14:08:02;6.82;;;3.83;;
12181;SDS011;6154;51.550;12.138;2023-04-29T14:10:30;6.07;;;4.18;;
12181;SDS011;6154;51.550;12.138;2023-04-29T14:13:08;5.15;;;3.67;;
12181;SDS011;6154;51.550;12.138;2023-04-29T14:15:36;5.07;;;3.62;;
12181;SDS011;6154;51.550;12.138;2023-04-29T14:18:05;8.38;;;4.32;;
12181;SDS011;6154;51.550;12.138;2023-04-29T14:20:35;4.60;;;3.80;;
12181;SDS011;6154;51.550;12.138;2023-04-29T14:23:03;5.68;;;3.87;;
12181;SDS011;6154;51.550;12.138;2023-04-29T14:25:31;6.28;;;4.18;;
12181;SDS011;6154;51.550;12.138;2023-04-29T14:28:00;5.72;;;3.42;;
12181;SDS011;6154;51.550;12.138;2023-04-29T14:30:28;5.30;;;3.85;;
12181;SDS011;6154;51.550;12.138;2023-04-29T14:32:56;5.15;;;3.53;;
12181;SDS011;6154;51.550;12.138;2023-04-29T14:35:26;6.95;;;4.03;;
12181;SDS011;6154;51.550;12.138;2023-04-29T14:37:54;6.60;;;4.32;;
12181;SDS011;6154;51.550;12.138;2023-04-29T14:40:22;6.97;;;4.10;;
12181;SDS011;6154;51.550;12.138;2023-04-29T14:42:50;6.28;;;3.78;;
12181;SDS011;6154;51.550;12.138;2023-04-29T14:45:18;6.43;;;3.70;;
12181;SDS011;6154;51.550;12.138;2023-04-29T14:47:46;4.03;;;3.20;;
12181;SDS011;6154;51.550;12.138;2023-04-29T14:50:15;7.43;;;4.03;;
12181;SDS011;6154;51.550;12.138;2023-04-29T14:52:45;4.22;;;3.37;;
12181;SDS011;6154;51.550;12.138;2023-04-29T14:55:13;7.32;;;3.55;;
12181;SDS011;6154;51.550;12.138;2023-04-29T14:57:42;5.85;;;3.87;;
12181;SDS011;6154;51.550;12.138;2023-04-29T15:00:11;5.57;;;3.65;;
12181;SDS011;6154;51.550;12.138;2023-04-29T15:02:40;6.07;;;3.85;;